sensor_id;sensor_type;location;lat;lon;timestamp;pressure;altitude;pressure_sealevel;temperature;humidity
59274;BME280;45044;41.572;24.730;2022-12-24T00:01:00;91201.66;;;-0.52;100.00
59274;BME280;45044;41.572;24.730;2022-12-24T00:03:27;91201.78;;;-0.48;100.00
59274;BME280;45044;41.572;24.730;2022-12-24T00:05:54;91197.53;;;-0.44;100.00
59274;BME280;45044;41.572;24.730;2022-12-24T00:08:21;91205.88;;;-0.47;100.00
59274;BME280;45044;41.572;24.730;2022-12-24T00:10:52;91204.22;;;-0.43;100.00
59274;BME280;45044;41.572;24.730;2022-12-24T00:13:19;91215.31;;;-0.51;100.00
59274;BME280;45044;41.572;24.730;2022-12-24T00:15:47;91214.56;;;-0.52;100.00
59274;BME280;45044;41.572;24.730;2022-12-24T00:18:14;91213.16;;;-0.49;100.00
59274;BME280;45044;41.572;24.730;2022-12-24T00:20:45;91209.22;;;-0.46;100.00
59274;BME280;45044;41.572;24.730;2022-12-24T00:23:14;91218.06;;;-0.56;100.00
59274;BME280;45044;41.572;24.730;2022-12-24T00:25:41;91223.06;;;-0.51;100.00
59274;BME280;45044;41.572;24.730;2022-12-24T00:28:08;91220.47;;;-0.42;100.00
59274;BME280;45044;41.572;24.730;2022-12-24T00:30:37;91212.28;;;-0.53;100.00
59274;BME280;45044;41.572;24.730;2022-12-24T00:33:05;91209.84;;;-0.50;100.00
59274;BME280;45044;41.572;24.730;2022-12-24T00:35:36;91211.38;;;-0.57;100.00
59274;BME280;45044;41.572;24.730;2022-12-24T00:38:03;91208.19;;;-0.72;100.00
59274;BME280;45044;41.572;24.730;2022-12-24T00:40:30;91216.69;;;-1.16;100.00
59274;BME280;45044;41.572;24.730;2022-12-24T00:42:58;91209.88;;;-0.94;100.00
59274;BME280;45044;41.572;24.730;2022-12-24T00:45:24;91209.13;;;-0.86;100.00
59274;BME280;45044;41.572;24.730;2022-12-24T00:47:53;91208.97;;;-0.89;100.00
59274;BME280;45044;41.572;24.730;2022-12-24T00:50:20;91204.69;;;-0.85;100.00
59274;BME280;45044;41.572;24.730;2022-12-24T00:52:47;91189.84;;;-0.97;100.00
59274;BME280;45044;41.572;24.730;2022-12-24T00:55:14;91193.78;;;-0.82;100.00
59274;BME280;45044;41.572;24.730;2022-12-24T00:57:41;91200.75;;;-0.91;100.00
59274;BME280;45044;41.572;24.730;2022-12-24T01:00:08;91204.25;;;-0.87;100.00
59274;BME280;45044;41.572;24.730;2022-12-24T01:02:35;91192.41;;;-0.79;100.00
59274;BME280;45044;41.572;24.730;2022-12-24T01:05:02;91201.53;;;-0.73;100.00
59274;BME280;45044;41.572;24.730;2022-12-24T01:07:41;91198.47;;;-0.75;100.00
59274;BME280;45044;41.572;24.730;2022-12-24T01:10:12;91189.78;;;-0.62;100.00
59274;BME280;45044;41.572;24.730;2022-12-24T01:12:40;91185.72;;;-0.63;100.00
59274;BME280;45044;41.572;24.730;2022-12-24T01:15:07;91194.38;;;-0.58;100.00
59274;BME280;45044;41.572;24.730;2022-12-24T01:17:34;91186.31;;;-0.66;100.00
59274;BME280;45044;41.572;24.730;2022-12-24T01:20:02;91189.38;;;-0.99;100.00
59274;BME280;45044;41.572;24.730;2022-12-24T01:22:30;91177.97;;;-0.98;100.00
59274;BME280;45044;41.572;24.730;2022-12-24T01:24:57;91183.91;;;-0.89;100.00
59274;BME280;45044;41.572;24.730;2022-12-24T01:27:24;91177.06;;;-0.85;100.00
59274;BME280;45044;41.572;24.730;2022-12-24T01:29:51;91177.53;;;-0.82;100.00
59274;BME280;45044;41.572;24.730;2022-12-24T01:32:17;91178.00;;;-0.89;100.00
59274;BME280;45044;41.572;24.730;2022-12-24T01:34:44;91175.41;;;-1.07;100.00
59274;BME280;45044;41.572;24.730;2022-12-24T01:37:11;91176.94;;;-0.97;100.00
59274;BME280;45044;41.572;24.730;2022-12-24T01:39:37;91175.69;;;-1.00;100.00
59274;BME280;45044;41.572;24.730;2022-12-24T01:42:19;91171.31;;;-1.08;100.00
59274;BME280;45044;41.572;24.730;2022-12-24T01:48:03;91158.56;;;-1.31;100.00
59274;BME280;45044;41.572;24.730;2022-12-24T01:50:30;91165.53;;;-1.23;100.00
59274;BME280;45044;41.572;24.730;2022-12-24T01:52:57;91160.38;;;-1.14;100.00
59274;BME280;45044;41.572;24.730;2022-12-24T01:55:24;91155.06;;;-1.26;100.00
59274;BME280;45044;41.572;24.730;2022-12-24T01:57:55;91168.88;;;-1.22;100.00
59274;BME280;45044;41.572;24.730;2022-12-24T02:00:23;91166.59;;;-1.15;100.00
59274;BME280;45044;41.572;24.730;2022-12-24T02:02:52;91165.22;;;-1.21;100.00
59274;BME280;45044;41.572;24.730;2022-12-24T02:05:37;91159.34;;;-1.13;100.00
59274;BME280;45044;41.572;24.730;2022-12-24T02:08:07;91166.44;;;-1.01;100.00
59274;BME280;45044;41.572;24.730;2022-12-24T02:10:34;91161.91;;;-0.95;100.00
59274;BME280;45044;41.572;24.730;2022-12-24T02:13:02;91155.66;;;-0.94;100.00
59274;BME280;45044;41.572;24.730;2022-12-24T02:15:38;91148.38;;;-0.92;100.00
59274;BME280;45044;41.572;24.730;2022-12-24T02:29:22;91155.53;;;-1.33;100.00
59274;BME280;45044;41.572;24.730;2022-12-24T02:32:01;91157.34;;;-1.34;100.00
59274;BME280;45044;41.572;24.730;2022-12-24T02:34:30;91159.59;;;-1.23;100.00
59274;BME280;45044;41.572;24.730;2022-12-24T02:39:38;91160.22;;;-1.26;100.00
59274;BME280;45044;41.572;24.730;2022-12-24T02:42:07;91156.59;;;-1.16;100.00
59274;BME280;45044;41.572;24.730;2022-12-24T02:44:46;91159.75;;;-1.19;100.00
59274;BME280;45044;41.572;24.730;2022-12-24T02:47:16;91155.53;;;-1.24;100.00
59274;BME280;45044;41.572;24.730;2022-12-24T02:49:45;91155.06;;;-1.17;100.00
59274;BME280;45044;41.572;24.730;2022-12-24T02:52:30;91157.34;;;-1.25;100.00
59274;BME280;45044;41.572;24.730;2022-12-24T02:55:01;91167.34;;;-1.14;100.00
59274;BME280;45044;41.572;24.730;2022-12-24T02:58:09;91166.88;;;-1.43;100.00
59274;BME280;45044;41.572;24.730;2022-12-24T03:09:27;91159.75;;;-1.28;100.00
59274;BME280;45044;41.572;24.730;2022-12-24T03:12:00;91168.13;;;-1.23;100.00
59274;BME280;45044;41.572;24.730;2022-12-24T03:14:28;91173.59;;;-1.24;100.00
59274;BME280;45044;41.572;24.730;2022-12-24T03:16:57;91166.47;;;-1.27;100.00
59274;BME280;45044;41.572;24.730;2022-12-24T03:19:25;91176.31;;;-1.29;100.00
59274;BME280;45044;41.572;24.730;2022-12-24T03:21:54;91168.88;;;-1.31;100.00
59274;BME280;45044;41.572;24.730;2022-12-24T03:24:22;91176.78;;;-1.18;100.00
59274;BME280;45044;41.572;24.730;2022-12-24T03:26:50;91180.56;;;-1.16;100.00
59274;BME280;45044;41.572;24.730;2022-12-24T03:29:18;91176.47;;;-1.26;100.00
59274;BME280;45044;41.572;24.730;2022-12-24T03:31:48;91181.16;;;-1.19;100.00
59274;BME280;45044;41.572;24.730;2022-12-24T03:34:16;91179.06;;;-1.08;100.00
59274;BME280;45044;41.572;24.730;2022-12-24T03:36:46;91169.66;;;-1.04;100.00
59274;BME280;45044;41.572;24.730;2022-12-24T03:39:13;91163.25;;;-1.06;100.00
59274;BME280;45044;41.572;24.730;2022-12-24T03:41:40;91165.06;;;-1.07;100.00
59274;BME280;45044;41.572;24.730;2022-12-24T03:44:07;91159.03;;;-1.20;100.00
59274;BME280;45044;41.572;24.730;2022-12-24T03:46:33;91160.84;;;-1.29;100.00
59274;BME280;45044;41.572;24.730;2022-12-24T03:49:00;91163.88;;;-1.27;100.00
59274;BME280;45044;41.572;24.730;2022-12-24T03:51:27;91161.28;;;-1.18;100.00
59274;BME280;45044;41.572;24.730;2022-12-24T03:53:55;91161.59;;;-1.11;100.00
59274;BME280;45044;41.572;24.730;2022-12-24T03:56:23;91160.22;;;-1.09;100.00
59274;BME280;45044;41.572;24.730;2022-12-24T03:58:50;91155.06;;;-1.09;100.00
59274;BME280;45044;41.572;24.730;2022-12-24T04:01:16;91156.13;;;-1.18;100.00
59274;BME280;45044;41.572;24.730;2022-12-24T04:03:44;91167.81;;;-1.21;100.00
59274;BME280;45044;41.572;24.730;2022-12-24T04:06:13;91164.47;;;-1.30;100.00
59274;BME280;45044;41.572;24.730;2022-12-24T04:08:41;91158.56;;;-1.31;100.00
59274;BME280;45044;41.572;24.730;2022-12-24T04:11:12;91157.47;;;-1.39;100.00
59274;BME280;45044;41.572;24.730;2022-12-24T04:13:39;91157.47;;;-1.39;100.00
59274;BME280;45044;41.572;24.730;2022-12-24T04:16:08;91163.09;;;-1.37;100.00
59274;BME280;45044;41.572;24.730;2022-12-24T04:18:37;91156.56;;;-1.43;100.00
59274;BME280;45044;41.572;24.730;2022-12-24T04:21:04;91159.28;;;-1.48;100.00
59274;BME280;45044;41.572;24.730;2022-12-24T04:23:32;91158.69;;;-1.45;100.00
59274;BME280;45044;41.572;24.730;2022-12-24T04:26:00;91161.72;;;-1.43;100.00
59274;BME280;45044;41.572;24.730;2022-12-24T04:28:28;91166.25;;;-1.58;100.00
59274;BME280;45044;41.572;24.730;2022-12-24T04:30:59;91161.56;;;-1.47;100.00
59274;BME280;45044;41.572;24.730;2022-12-24T04:33:26;91165.69;;;-1.46;100.00
59274;BME280;45044;41.572;24.730;2022-12-24T04:35:53;91151.09;;;-1.50;100.00
59274;BME280;45044;41.572;24.730;2022-12-24T04:38:20;91142.31;;;-1.31;100.00
59274;BME280;45044;41.572;24.730;2022-12-24T04:40:46;91135.94;;;-1.25;100.00
59274;BME280;45044;41.572;24.730;2022-12-24T04:43:14;91143.81;;;-1.30;100.00
59274;BME280;45044;41.572;24.730;2022-12-24T04:45:40;91155.22;;;-1.23;100.00
59274;BME280;45044;41.572;24.730;2022-12-24T04:48:07;91155.81;;;-1.35;100.00
59274;BME280;45044;41.572;24.730;2022-12-24T04:50:34;91161.22;;;-1.72;100.00
59274;BME280;45044;41.572;24.730;2022-12-24T04:53:01;91158.66;;;-1.63;100.00
59274;BME280;45044;41.572;24.730;2022-12-24T04:55:27;91162.16;;;-1.59;100.00
59274;BME280;45044;41.572;24.730;2022-12-24T04:57:54;91157.16;;;-1.46;100.00
59274;BME280;45044;41.572;24.730;2022-12-24T05:00:21;91161.72;;;-1.43;100.00
59274;BME280;45044;41.572;24.730;2022-12-24T05:02:48;91155.19;;;-1.49;100.00
59274;BME280;45044;41.572;24.730;2022-12-24T05:05:14;91163.66;;;-1.58;100.00
59274;BME280;45044;41.572;24.730;2022-12-24T05:07:41;91158.94;;;-1.73;100.00
59274;BME280;45044;41.572;24.730;2022-12-24T05:10:08;91167.41;;;-1.82;100.00
59274;BME280;45044;41.572;24.730;2022-12-24T05:12:36;91170.47;;;-1.71;100.00
59274;BME280;45044;41.572;24.730;2022-12-24T05:15:03;91170.50;;;-1.62;100.00
59274;BME280;45044;41.572;24.730;2022-12-24T05:17:30;91159.59;;;-1.59;100.00
59274;BME280;45044;41.572;24.730;2022-12-24T05:19:57;91170.38;;;-1.48;100.00
59274;BME280;45044;41.572;24.730;2022-12-24T05:22:24;91172.34;;;-1.45;100.00
59274;BME280;45044;41.572;24.730;2022-12-24T05:25:09;91175.06;;;-1.50;100.00
59274;BME280;45044;41.572;24.730;2022-12-24T05:27:54;91179.28;;;-1.63;100.00
59274;BME280;45044;41.572;24.730;2022-12-24T05:30:21;91178.81;;;-1.65;100.00
59274;BME280;45044;41.572;24.730;2022-12-24T05:32:48;91179.00;;;-1.52;100.00
59274;BME280;45044;41.572;24.730;2022-12-24T05:35:15;91175.94;;;-1.54;100.00
59274;BME280;45044;41.572;24.730;2022-12-24T05:37:42;91181.44;;;-1.47;100.00
59274;BME280;45044;41.572;24.730;2022-12-24T05:40:08;91183.69;;;-1.54;100.00
59274;BME280;45044;41.572;24.730;2022-12-24T05:42:35;91176.72;;;-1.54;100.00
59274;BME280;45044;41.572;24.730;2022-12-24T05:45:02;91179.59;;;-1.55;100.00
59274;BME280;45044;41.572;24.730;2022-12-24T05:47:29;91180.50;;;-1.60;100.00
59274;BME280;45044;41.572;24.730;2022-12-24T05:49:56;91175.06;;;-1.59;100.00
59274;BME280;45044;41.572;24.730;2022-12-24T05:52:22;91176.28;;;-1.47;100.00
59274;BME280;45044;41.572;24.730;2022-12-24T05:54:49;91173.09;;;-1.53;100.00
59274;BME280;45044;41.572;24.730;2022-12-24T05:57:16;91182.34;;;-1.43;100.00
59274;BME280;45044;41.572;24.730;2022-12-24T05:59:43;91145.91;;;-1.68;100.00
59274;BME280;45044;41.572;24.730;2022-12-24T06:02:09;91183.88;;;-1.42;100.00
59274;BME280;45044;41.572;24.730;2022-12-24T06:04:37;91173.84;;;-1.43;100.00
59274;BME280;45044;41.572;24.730;2022-12-24T06:07:04;91186.47;;;-1.24;100.00
59274;BME280;45044;41.572;24.730;2022-12-24T06:09:30;91189.53;;;-1.22;100.00
59274;BME280;45044;41.572;24.730;2022-12-24T06:11:57;91185.41;;;-1.23;100.00
59274;BME280;45044;41.572;24.730;2022-12-24T06:14:24;91189.38;;;-1.17;100.00
59274;BME280;45044;41.572;24.730;2022-12-24T06:16:51;91187.56;;;-1.16;100.00
59274;BME280;45044;41.572;24.730;2022-12-24T06:19:18;91192.88;;;-1.13;100.00
59274;BME280;45044;41.572;24.730;2022-12-24T06:21:45;91187.25;;;-1.15;100.00
59274;BME280;45044;41.572;24.730;2022-12-24T06:24:11;91182.97;;;-1.11;100.00
59274;BME280;45044;41.572;24.730;2022-12-24T06:26:38;91185.13;;;-1.13;100.00
59274;BME280;45044;41.572;24.730;2022-12-24T06:29:05;91182.81;;;-1.14;100.00
59274;BME280;45044;41.572;24.730;2022-12-24T06:31:32;91198.78;;;-1.03;100.00
59274;BME280;45044;41.572;24.730;2022-12-24T06:33:58;91194.22;;;-0.98;100.00
59274;BME280;45044;41.572;24.730;2022-12-24T06:36:26;91189.69;;;-0.92;100.00
59274;BME280;45044;41.572;24.730;2022-12-24T06:38:53;91191.19;;;-0.91;100.00
59274;BME280;45044;41.572;24.730;2022-12-24T06:41:21;91190.59;;;-0.88;100.00
59274;BME280;45044;41.572;24.730;2022-12-24T06:43:50;91191.34;;;-0.69;100.00
59274;BME280;45044;41.572;24.730;2022-12-24T06:46:18;91192.84;;;-0.68;100.00
59274;BME280;45044;41.572;24.730;2022-12-24T06:48:46;91194.59;;;-0.25;100.00
59274;BME280;45044;41.572;24.730;2022-12-24T06:51:14;91181.81;;;0.27;100.00
59274;BME280;45044;41.572;24.730;2022-12-24T06:53:41;91190.59;;;1.08;100.00
59274;BME280;45044;41.572;24.730;2022-12-24T06:56:10;91181.91;;;2.06;100.00
59274;BME280;45044;41.572;24.730;2022-12-24T06:58:38;91193.69;;;3.32;100.00
59274;BME280;45044;41.572;24.730;2022-12-24T07:01:09;91189.91;;;4.03;100.00
59274;BME280;45044;41.572;24.730;2022-12-24T07:03:36;91182.06;;;4.67;100.00
59274;BME280;45044;41.572;24.730;2022-12-24T07:06:04;91184.78;;;5.67;100.00
59274;BME280;45044;41.572;24.730;2022-12-24T07:08:31;91183.66;;;6.11;100.00
59274;BME280;45044;41.572;24.730;2022-12-24T07:10:59;91179.94;;;6.86;100.00
59274;BME280;45044;41.572;24.730;2022-12-24T07:13:26;91172.44;;;7.42;89.02
59274;BME280;45044;41.572;24.730;2022-12-24T07:16:01;91169.84;;;7.81;87.40
59274;BME280;45044;41.572;24.730;2022-12-24T07:18:28;91172.97;;;8.39;79.77
59274;BME280;45044;41.572;24.730;2022-12-24T07:20:55;91143.69;;;8.79;76.30
59274;BME280;45044;41.572;24.730;2022-12-24T07:23:22;91166.97;;;9.69;70.28
59274;BME280;45044;41.572;24.730;2022-12-24T07:25:50;91162.19;;;10.26;65.74
59274;BME280;45044;41.572;24.730;2022-12-24T07:28:16;91170.47;;;10.39;65.27
59274;BME280;45044;41.572;24.730;2022-12-24T07:30:53;91170.38;;;9.85;66.02
59274;BME280;45044;41.572;24.730;2022-12-24T07:33:20;91166.56;;;9.60;70.13
59274;BME280;45044;41.572;24.730;2022-12-24T07:35:47;91160.66;;;11.06;63.82
59274;BME280;45044;41.572;24.730;2022-12-24T07:38:21;91164.16;;;11.78;60.44
59274;BME280;45044;41.572;24.730;2022-12-24T07:40:47;91166.94;;;12.27;57.95
59274;BME280;45044;41.572;24.730;2022-12-24T07:43:14;91166.69;;;12.64;55.04
59274;BME280;45044;41.572;24.730;2022-12-24T07:45:41;91156.13;;;12.03;57.90
59274;BME280;45044;41.572;24.730;2022-12-24T07:48:08;91151.03;;;11.74;58.22
59274;BME280;45044;41.572;24.730;2022-12-24T07:50:35;91154.69;;;10.83;60.95
59274;BME280;45044;41.572;24.730;2022-12-24T07:53:02;91162.22;;;10.52;65.05
59274;BME280;45044;41.572;24.730;2022-12-24T07:55:28;91165.59;;;11.97;59.32
59274;BME280;45044;41.572;24.730;2022-12-24T07:57:55;91156.38;;;12.80;55.98
59274;BME280;45044;41.572;24.730;2022-12-24T08:00:22;91160.22;;;13.49;54.41
59274;BME280;45044;41.572;24.730;2022-12-24T08:02:49;91167.13;;;13.74;52.58
59274;BME280;45044;41.572;24.730;2022-12-24T08:05:16;91163.34;;;13.75;51.34
59274;BME280;45044;41.572;24.730;2022-12-24T08:07:42;91159.81;;;13.55;52.71
59274;BME280;45044;41.572;24.730;2022-12-24T08:10:09;91138.59;;;13.62;52.05
59274;BME280;45044;41.572;24.730;2022-12-24T08:12:36;91171.44;;;13.61;53.05
59274;BME280;45044;41.572;24.730;2022-12-24T08:15:03;91166.81;;;13.34;53.01
59274;BME280;45044;41.572;24.730;2022-12-24T08:17:30;91158.66;;;13.17;54.21
59274;BME280;45044;41.572;24.730;2022-12-24T08:19:58;91164.16;;;13.69;51.78
59274;BME280;45044;41.572;24.730;2022-12-24T08:22:24;91167.09;;;13.04;55.44
59274;BME280;45044;41.572;24.730;2022-12-24T08:24:51;91153.38;;;13.56;54.16
59274;BME280;45044;41.572;24.730;2022-12-24T08:27:18;91157.97;;;13.83;52.72
59274;BME280;45044;41.572;24.730;2022-12-24T08:29:45;91155.78;;;12.58;56.80
59274;BME280;45044;41.572;24.730;2022-12-24T08:32:12;91151.19;;;13.12;55.26
59274;BME280;45044;41.572;24.730;2022-12-24T08:34:38;91156.97;;;12.99;54.61
59274;BME280;45044;41.572;24.730;2022-12-24T08:37:05;91158.34;;;13.11;54.65
59274;BME280;45044;41.572;24.730;2022-12-24T08:39:32;91150.84;;;12.64;56.49
59274;BME280;45044;41.572;24.730;2022-12-24T08:41:59;91154.56;;;13.47;55.54
59274;BME280;45044;41.572;24.730;2022-12-24T08:44:25;91159.41;;;13.87;51.54
59274;BME280;45044;41.572;24.730;2022-12-24T08:46:52;91156.88;;;12.64;53.71
59274;BME280;45044;41.572;24.730;2022-12-24T08:49:19;91155.34;;;12.17;54.46
59274;BME280;45044;41.572;24.730;2022-12-24T08:51:45;91155.38;;;12.14;56.47
59274;BME280;45044;41.572;24.730;2022-12-24T08:54:12;91148.59;;;11.26;60.39
59274;BME280;45044;41.572;24.730;2022-12-24T08:56:39;91157.25;;;11.20;62.74
59274;BME280;45044;41.572;24.730;2022-12-24T08:59:06;91149.88;;;11.82;57.87
59274;BME280;45044;41.572;24.730;2022-12-24T09:01:32;91149.31;;;13.09;57.10
59274;BME280;45044;41.572;24.730;2022-12-24T09:04:00;91134.13;;;13.20;52.75
59274;BME280;45044;41.572;24.730;2022-12-24T09:06:27;91134.97;;;13.13;52.28
59274;BME280;45044;41.572;24.730;2022-12-24T09:08:56;91128.53;;;12.30;55.04
59274;BME280;45044;41.572;24.730;2022-12-24T09:11:23;91138.41;;;12.07;57.51
59274;BME280;45044;41.572;24.730;2022-12-24T09:13:50;91134.94;;;12.25;58.47
59274;BME280;45044;41.572;24.730;2022-12-24T09:16:17;91140.84;;;11.76;62.51
59274;BME280;45044;41.572;24.730;2022-12-24T09:18:44;91143.53;;;12.37;60.92
59274;BME280;45044;41.572;24.730;2022-12-24T09:21:13;91141.75;;;12.72;60.73
59274;BME280;45044;41.572;24.730;2022-12-24T09:23:42;91144.34;;;13.53;56.34
59274;BME280;45044;41.572;24.730;2022-12-24T09:26:16;91134.22;;;13.48;56.17
59274;BME280;45044;41.572;24.730;2022-12-24T09:28:43;91137.25;;;12.69;55.60
59274;BME280;45044;41.572;24.730;2022-12-24T09:31:11;91135.94;;;12.46;59.51
59274;BME280;45044;41.572;24.730;2022-12-24T09:33:40;91117.50;;;12.88;57.32
59274;BME280;45044;41.572;24.730;2022-12-24T09:36:08;91110.03;;;13.49;54.26
59274;BME280;45044;41.572;24.730;2022-12-24T09:38:36;91111.88;;;13.21;52.52
59274;BME280;45044;41.572;24.730;2022-12-24T09:41:32;91107.34;;;13.22;54.06
59274;BME280;45044;41.572;24.730;2022-12-24T09:46:50;91101.38;;;14.08;49.61
59274;BME280;45044;41.572;24.730;2022-12-24T09:49:22;91103.25;;;14.59;46.72
59274;BME280;45044;41.572;24.730;2022-12-24T09:51:54;91066.78;;;15.15;46.09
59274;BME280;45044;41.572;24.730;2022-12-24T09:54:35;91098.47;;;14.26;49.01
59274;BME280;45044;41.572;24.730;2022-12-24T09:57:30;91100.59;;;14.35;52.44
59274;BME280;45044;41.572;24.730;2022-12-24T10:00:00;91100.81;;;14.92;50.78
59274;BME280;45044;41.572;24.730;2022-12-24T10:02:28;91090.59;;;14.70;49.38
59274;BME280;45044;41.572;24.730;2022-12-24T10:04:55;91096.81;;;14.84;47.18
59274;BME280;45044;41.572;24.730;2022-12-24T10:15:45;91067.81;;;14.77;46.20
59274;BME280;45044;41.572;24.730;2022-12-24T10:18:47;91078.41;;;14.77;45.66
59274;BME280;45044;41.572;24.730;2022-12-24T10:21:32;91084.47;;;14.97;42.97
59274;BME280;45044;41.572;24.730;2022-12-24T10:24:09;91053.00;;;14.83;44.53
59274;BME280;45044;41.572;24.730;2022-12-24T10:26:55;91087.81;;;14.78;45.08
59274;BME280;45044;41.572;24.730;2022-12-24T10:29:29;91086.13;;;15.12;44.70
59274;BME280;45044;41.572;24.730;2022-12-24T10:34:42;91088.72;;;16.60;43.20
59274;BME280;45044;41.572;24.730;2022-12-24T10:37:21;91086.78;;;17.07;40.89
59274;BME280;45044;41.572;24.730;2022-12-24T10:39:49;91065.50;;;17.53;39.56
59274;BME280;45044;41.572;24.730;2022-12-24T10:42:27;91080.75;;;17.36;40.13
59274;BME280;45044;41.572;24.730;2022-12-24T10:45:03;91082.94;;;16.95;40.48
59274;BME280;45044;41.572;24.730;2022-12-24T10:47:32;91081.75;;;16.96;39.54
59274;BME280;45044;41.572;24.730;2022-12-24T10:50:04;91076.09;;;17.40;40.10
59274;BME280;45044;41.572;24.730;2022-12-24T10:52:39;91066.34;;;17.76;38.67
59274;BME280;45044;41.572;24.730;2022-12-24T10:55:20;91067.91;;;17.34;39.57
59274;BME280;45044;41.572;24.730;2022-12-24T10:58:03;91074.06;;;17.31;39.25
59274;BME280;45044;41.572;24.730;2022-12-24T11:00:30;91063.50;;;16.68;40.24
59274;BME280;45044;41.572;24.730;2022-12-24T11:05:38;91061.56;;;15.85;41.51
59274;BME280;45044;41.572;24.730;2022-12-24T11:08:15;91065.56;;;15.77;42.03
59274;BME280;45044;41.572;24.730;2022-12-24T11:10:59;91069.34;;;15.76;41.58
59274;BME280;45044;41.572;24.730;2022-12-24T11:13:29;91073.91;;;15.38;42.43
59274;BME280;45044;41.572;24.730;2022-12-24T11:16:33;91048.44;;;14.83;43.89
59274;BME280;45044;41.572;24.730;2022-12-24T11:19:05;91072.53;;;14.65;44.49
59274;BME280;45044;41.572;24.730;2022-12-24T11:21:41;91071.81;;;14.17;44.42
59274;BME280;45044;41.572;24.730;2022-12-24T11:26:41;91078.03;;;14.30;44.79
59274;BME280;45044;41.572;24.730;2022-12-24T11:29:15;91075.09;;;13.69;46.30
59274;BME280;45044;41.572;24.730;2022-12-24T11:31:45;91050.75;;;13.26;47.58
59274;BME280;45044;41.572;24.730;2022-12-24T11:34:31;91070.38;;;13.22;49.18
59274;BME280;45044;41.572;24.730;2022-12-24T11:37:22;91071.75;;;12.64;49.39
59274;BME280;45044;41.572;24.730;2022-12-24T11:39:52;91071.69;;;12.71;49.33
59274;BME280;45044;41.572;24.730;2022-12-24T11:42:30;91054.34;;;12.31;50.24
59274;BME280;45044;41.572;24.730;2022-12-24T11:44:59;91072.16;;;12.13;50.98
59274;BME280;45044;41.572;24.730;2022-12-24T11:47:38;91076.59;;;12.27;51.20
59274;BME280;45044;41.572;24.730;2022-12-24T11:53:04;91063.53;;;12.12;50.74
59274;BME280;45044;41.572;24.730;2022-12-24T11:55:40;91054.00;;;12.68;50.55
59274;BME280;45044;41.572;24.730;2022-12-24T11:58:39;91054.50;;;14.12;48.50
59274;BME280;45044;41.572;24.730;2022-12-24T12:01:26;91044.97;;;14.18;46.61
59274;BME280;45044;41.572;24.730;2022-12-24T12:06:45;91054.53;;;13.84;46.79
59274;BME280;45044;41.572;24.730;2022-12-24T12:15:05;91058.16;;;13.35;48.56
59274;BME280;45044;41.572;24.730;2022-12-24T12:17:50;91064.28;;;12.55;48.77
59274;BME280;45044;41.572;24.730;2022-12-24T12:20:29;91063.72;;;12.32;49.53
59274;BME280;45044;41.572;24.730;2022-12-24T12:26:07;91057.31;;;12.37;51.89
59274;BME280;45044;41.572;24.730;2022-12-24T12:28:48;91060.94;;;12.05;52.04
59274;BME280;45044;41.572;24.730;2022-12-24T12:31:25;91065.13;;;11.95;52.24
59274;BME280;45044;41.572;24.730;2022-12-24T12:36:56;91049.13;;;12.66;51.97
59274;BME280;45044;41.572;24.730;2022-12-24T12:39:24;91051.69;;;12.74;51.70
59274;BME280;45044;41.572;24.730;2022-12-24T12:58:20;91043.84;;;12.66;49.12
59274;BME280;45044;41.572;24.730;2022-12-24T14:06:28;91097.59;;;10.87;65.40
59274;BME280;45044;41.572;24.730;2022-12-24T14:09:05;91102.84;;;10.91;69.08
59274;BME280;45044;41.572;24.730;2022-12-24T14:14:42;91108.09;;;10.87;71.87
59274;BME280;45044;41.572;24.730;2022-12-24T14:19:57;91102.47;;;10.78;73.20
59274;BME280;45044;41.572;24.730;2022-12-24T14:22:29;91115.63;;;10.71;73.15
59274;BME280;45044;41.572;24.730;2022-12-24T14:25:08;91108.16;;;10.62;77.50
59274;BME280;45044;41.572;24.730;2022-12-24T14:32:44;91109.66;;;10.41;86.73
59274;BME280;45044;41.572;24.730;2022-12-24T14:38:01;91114.16;;;10.26;80.80
59274;BME280;45044;41.572;24.730;2022-12-24T14:40:31;91114.16;;;10.18;82.14
59274;BME280;45044;41.572;24.730;2022-12-24T14:43:12;91105.88;;;10.09;94.89
59274;BME280;45044;41.572;24.730;2022-12-24T14:45:50;91109.63;;;9.93;97.58
59274;BME280;45044;41.572;24.730;2022-12-24T14:48:30;91115.63;;;9.83;100.00
59274;BME280;45044;41.572;24.730;2022-12-24T14:56:35;91117.81;;;9.63;100.00
59274;BME280;45044;41.572;24.730;2022-12-24T14:59:14;91116.28;;;9.54;100.00
59274;BME280;45044;41.572;24.730;2022-12-24T15:01:41;91113.97;;;9.27;100.00
59274;BME280;45044;41.572;24.730;2022-12-24T15:09:20;91120.25;;;9.08;100.00
59274;BME280;45044;41.572;24.730;2022-12-24T15:11:50;91124.34;;;9.02;100.00
59274;BME280;45044;41.572;24.730;2022-12-24T15:14:18;91132.50;;;8.85;100.00
59274;BME280;45044;41.572;24.730;2022-12-24T15:21:54;91132.94;;;8.38;100.00
59274;BME280;45044;41.572;24.730;2022-12-24T15:24:32;91132.88;;;8.31;100.00
59274;BME280;45044;41.572;24.730;2022-12-24T15:27:17;91131.75;;;8.29;100.00
59274;BME280;45044;41.572;24.730;2022-12-24T15:29:47;91138.75;;;8.17;100.00
59274;BME280;45044;41.572;24.730;2022-12-24T15:32:17;91122.28;;;8.17;100.00
59274;BME280;45044;41.572;24.730;2022-12-24T15:34:54;91126.16;;;7.85;100.00
59274;BME280;45044;41.572;24.730;2022-12-24T15:37:35;91137.84;;;7.98;100.00
59274;BME280;45044;41.572;24.730;2022-12-24T15:40:19;91144.59;;;7.99;100.00
59274;BME280;45044;41.572;24.730;2022-12-24T15:42:47;91152.41;;;7.96;100.00
59274;BME280;45044;41.572;24.730;2022-12-24T15:45:27;91150.16;;;7.94;100.00
59274;BME280;45044;41.572;24.730;2022-12-24T15:48:06;91152.78;;;7.94;100.00
59274;BME280;45044;41.572;24.730;2022-12-24T15:50:36;91159.13;;;7.93;100.00
59274;BME280;45044;41.572;24.730;2022-12-24T15:53:06;91154.13;;;7.81;100.00
59274;BME280;45044;41.572;24.730;2022-12-24T15:58:43;91162.41;;;7.48;100.00